Time;durP1;ratioP1;P1;durP2;ratioP2;P2;SDS_P1;SDS_P2;PMS_P1;PMS_P2;Temp;Humidity;BMP_temperature;BMP_pressure;BME280_temperature;BME280_humidity;BME280_pressure;Samples;Min_cycle;Max_cycle;Signal;HPM_P1;HPM_P2
2022/07/07 00:02:15;;;;;;;13.05;7.43;;;16.80;99.90;;;;;;5071402;28;20435;-66
2022/07/07 00:04:41;;;;;;;13.63;8.13;;;16.60;99.90;;;;;;5071444;28;20037;-66
2022/07/07 00:07:07;;;;;;;14.07;6.90;;;16.70;99.90;;;;;;5071267;28;20036;-64
2022/07/07 00:09:33;;;;;;;13.07;7.30;;;16.70;99.90;;;;;;5070592;28;20052;-64
2022/07/07 00:11:58;;;;;;;11.18;6.65;;;16.70;99.90;;;;;;5071510;28;20116;-64
2022/07/07 00:14:24;;;;;;;12.75;6.25;;;16.60;99.90;;;;;;5071256;28;20036;-64
2022/07/07 00:16:50;;;;;;;11.82;6.05;;;16.80;99.90;;;;;;5071379;28;20059;-65
2022/07/07 00:19:16;;;;;;;10.60;6.43;;;16.70;99.90;;;;;;5071317;28;20466;-64
2022/07/07 00:21:41;;;;;;;11.65;5.75;;;16.80;99.90;;;;;;5071191;28;20044;-64
2022/07/07 00:24:07;;;;;;;9.38;5.50;;;16.60;99.90;;;;;;5072043;28;20085;-65
2022/07/07 00:26:33;;;;;;;9.23;6.20;;;16.60;99.90;;;;;;5074941;28;20375;-65
2022/07/07 00:28:59;;;;;;;7.95;5.63;;;16.70;99.90;;;;;;5074768;28;20461;-65
2022/07/07 00:31:25;;;;;;;10.27;5.18;;;16.70;99.90;;;;;;5075079;28;20032;-64
2022/07/07 00:33:51;;;;;;;12.98;5.93;;;16.70;99.90;;;;;;5074779;28;20082;-64
2022/07/07 00:36:16;;;;;;;10.18;5.00;;;16.70;99.90;;;;;;5074769;28;20037;-65
2022/07/07 00:38:42;;;;;;;10.32;5.68;;;16.80;99.90;;;;;;5073167;28;20504;-65
2022/07/07 00:41:08;;;;;;;10.70;5.32;;;16.60;99.90;;;;;;5074673;28;20040;-63
2022/07/07 00:43:38;;;;;;;8.50;5.63;;;16.70;99.90;;;;;;5074393;28;20085;-65
2022/07/07 00:46:04;;;;;;;6.95;4.38;;;16.70;99.90;;;;;;5074802;28;20097;-64
2022/07/07 00:48:33;;;;;;;12.95;6.57;;;16.60;99.90;;;;;;5074636;28;20032;-66
2022/07/07 00:50:59;;;;;;;10.18;5.97;;;16.60;99.90;;;;;;5074494;28;20044;-65
2022/07/07 00:53:25;;;;;;;10.48;5.50;;;16.70;99.90;;;;;;5074376;28;20047;-64
2022/07/07 00:55:51;;;;;;;7.35;4.50;;;16.60;99.90;;;;;;5074250;28;20041;-64
2022/07/07 00:58:17;;;;;;;7.72;4.30;;;16.70;99.90;;;;;;5074183;28;20126;-65
2022/07/07 01:00:43;;;;;;;10.15;4.22;;;16.60;99.90;;;;;;5074565;28;20390;-67
2022/07/07 01:03:09;;;;;;;5.90;3.50;;;16.50;99.90;;;;;;5074354;28;20094;-66
2022/07/07 01:05:36;;;;;;;7.00;3.40;;;16.50;99.90;;;;;;5072649;28;20051;-66
2022/07/07 01:08:04;;;;;;;7.07;3.28;;;16.50;99.90;;;;;;5074208;28;20041;-63
2022/07/07 01:10:30;;;;;;;5.60;3.13;;;16.40;99.90;;;;;;5074171;28;20032;-64
2022/07/07 01:13:00;;;;;;;7.00;3.10;;;16.50;99.90;;;;;;5073949;28;20036;-65
2022/07/07 01:15:26;;;;;;;6.28;2.85;;;16.40;99.90;;;;;;5074222;28;20119;-65
2022/07/07 01:17:51;;;;;;;7.30;2.33;;;16.50;99.90;;;;;;5074040;28;20257;-63
2022/07/07 01:20:20;;;;;;;5.75;2.35;;;16.40;99.90;;;;;;5073002;28;20048;-64
2022/07/07 01:22:55;;;;;;;6.68;3.08;;;16.50;99.90;;;;;;5073886;28;20120;-66
2022/07/07 01:25:21;;;;;;;6.03;2.78;;;16.40;99.90;;;;;;5074273;28;20033;-64
2022/07/07 01:27:47;;;;;;;6.22;3.20;;;16.40;99.90;;;;;;5072288;28;20499;-65
2022/07/07 01:30:13;;;;;;;6.18;3.30;;;16.30;99.90;;;;;;5073880;28;20033;-65
2022/07/07 01:32:39;;;;;;;5.07;2.90;;;16.40;99.90;;;;;;5073789;28;20043;-65
2022/07/07 01:35:05;;;;;;;6.28;3.20;;;16.40;99.90;;;;;;5073651;28;20036;-65
2022/07/07 01:37:33;;;;;;;5.60;3.63;;;16.40;99.90;;;;;;5072752;28;20047;-63
2022/07/07 01:39:59;;;;;;;8.67;3.33;;;16.30;99.90;;;;;;5073554;28;20449;-64
2022/07/07 01:42:25;;;;;;;7.53;3.50;;;16.30;99.90;;;;;;5073559;28;20040;-65
2022/07/07 01:44:51;;;;;;;9.82;3.72;;;16.20;99.90;;;;;;5073545;28;20036;-65
2022/07/07 01:47:19;;;;;;;7.35;3.50;;;16.40;99.90;;;;;;5073376;28;20040;-65
2022/07/07 01:49:45;;;;;;;8.90;3.88;;;16.40;99.90;;;;;;5073356;28;20041;-64
2022/07/07 01:52:11;;;;;;;9.88;3.92;;;16.20;99.90;;;;;;5073159;28;20044;-64
2022/07/07 01:54:38;;;;;;;11.52;4.80;;;16.30;99.90;;;;;;5071843;28;20059;-63
2022/07/07 01:57:05;;;;;;;9.18;3.95;;;16.20;99.90;;;;;;5073298;28;20067;-64
2022/07/07 01:59:33;;;;;;;13.40;3.95;;;16.40;99.90;;;;;;5073332;28;20033;-64
2022/07/07 02:01:59;;;;;;;8.10;3.58;;;16.30;99.90;;;;;;5073102;28;20044;-63
2022/07/07 02:04:24;;;;;;;12.98;4.28;;;16.20;99.90;;;;;;5072933;28;20044;-64
2022/07/07 02:06:51;;;;;;;7.50;3.30;;;16.10;99.90;;;;;;5072983;28;20084;-64
2022/07/07 02:09:16;;;;;;;12.25;3.75;;;16.20;99.90;;;;;;5073116;28;20041;-66
2022/07/07 02:11:42;;;;;;;13.23;3.88;;;16.40;99.90;;;;;;5073210;28;20045;-64
2022/07/07 02:14:08;;;;;;;9.20;3.50;;;16.30;99.90;;;;;;5073270;28;20098;-64
2022/07/07 02:16:33;;;;;;;12.68;4.10;;;16.30;99.90;;;;;;5073128;28;20387;-64
2022/07/07 02:19:02;;;;;;;11.95;3.10;;;16.20;99.90;;;;;;5072806;28;20071;-63
2022/07/07 02:21:28;;;;;;;10.18;3.10;;;16.20;99.90;;;;;;5072669;28;20051;-63
2022/07/07 02:23:55;;;;;;;14.48;4.20;;;16.20;99.90;;;;;;5072748;28;20039;-62
2022/07/07 02:26:21;;;;;;;13.15;4.03;;;16.40;99.90;;;;;;5072954;28;20032;-62
2022/07/07 02:28:47;;;;;;;14.18;4.38;;;16.30;99.90;;;;;;5072606;28;20097;-64
2022/07/07 02:31:13;;;;;;;14.15;3.80;;;16.40;99.90;;;;;;5072623;28;20436;-64
2022/07/07 02:33:39;;;;;;;9.82;3.35;;;16.20;99.90;;;;;;5072466;28;20467;-64
2022/07/07 02:36:06;;;;;;;14.63;3.25;;;16.20;99.90;;;;;;5072329;28;20105;-64
2022/07/07 02:38:33;;;;;;;11.65;3.22;;;16.40;99.90;;;;;;5072216;28;20054;-64
2022/07/07 02:40:59;;;;;;;7.15;2.53;;;16.20;99.90;;;;;;5072559;28;20032;-64
2022/07/07 02:43:25;;;;;;;9.93;3.10;;;16.10;99.90;;;;;;5072280;28;20510;-64
2022/07/07 02:45:51;;;;;;;10.52;2.72;;;16.20;99.90;;;;;;5072305;28;20036;-65
2022/07/07 02:48:19;;;;;;;7.25;2.35;;;16.30;99.90;;;;;;5071442;28;20032;-64
2022/07/07 02:50:45;;;;;;;26.47;3.87;;;16.30;99.90;;;;;;5072133;28;20427;-63
2022/07/07 02:53:12;;;;;;;14.70;3.53;;;16.30;99.90;;;;;;5072092;28;20310;-64
2022/07/07 02:55:38;;;;;;;9.32;2.30;;;16.30;99.90;;;;;;5072132;28;20118;-64
2022/07/07 02:58:05;;;;;;;14.02;2.40;;;16.20;99.90;;;;;;5072288;28;20447;-64
2022/07/07 03:00:34;;;;;;;9.15;2.25;;;16.20;99.90;;;;;;5071133;28;20056;-65
2022/07/07 03:03:10;;;;;;;;;;;16.10;99.90;;;;;;5072238;28;20044;-64
2022/07/07 03:05:36;;;;;;;7.90;2.28;;;16.10;99.90;;;;;;5072055;28;20370;-64
2022/07/07 03:08:03;;;;;;;14.38;3.08;;;16.10;99.90;;;;;;5072447;28;20159;-64
2022/07/07 03:10:28;;;;;;;13.07;3.05;;;16.30;99.90;;;;;;5072252;28;20470;-64
2022/07/07 03:12:54;;;;;;;13.63;3.17;;;16.20;99.90;;;;;;5071818;28;20036;-64
2022/07/07 03:15:20;;;;;;;9.95;2.63;;;16.20;99.90;;;;;;5071882;28;20046;-63
2022/07/07 03:17:48;;;;;;;11.10;2.60;;;16.20;99.90;;;;;;5071670;28;20403;-63
2022/07/07 03:20:15;;;;;;;11.07;2.67;;;16.20;99.90;;;;;;5071971;28;20652;-64
2022/07/07 03:22:42;;;;;;;10.00;3.00;;;16.20;99.90;;;;;;5071802;28;20045;-65
2022/07/07 03:25:09;;;;;;;10.02;3.17;;;16.00;99.90;;;;;;5071937;28;20047;-64
2022/07/07 03:27:35;;;;;;;11.88;3.08;;;16.20;99.90;;;;;;5071611;28;20440;-63
2022/07/07 03:30:05;;;;;;;13.02;2.50;;;16.30;99.90;;;;;;5071728;28;20043;-63
2022/07/07 03:32:31;;;;;;;10.55;2.30;;;16.30;99.90;;;;;;5071708;28;20448;-64
2022/07/07 03:34:57;;;;;;;10.30;1.95;;;16.00;99.90;;;;;;5072013;28;20093;-63
2022/07/07 03:37:24;;;;;;;12.45;2.53;;;16.00;99.90;;;;;;5071792;28;20470;-64
2022/07/07 03:39:49;;;;;;;4.72;1.35;;;16.00;99.90;;;;;;5071415;28;20060;-65
2022/07/07 03:42:15;;;;;;;15.55;1.83;;;16.00;99.90;;;;;;5071363;28;20379;-63
2022/07/07 03:44:43;;;;;;;11.82;2.47;;;16.10;99.90;;;;;;5071501;28;20055;-63
2022/07/07 03:47:11;;;;;;;13.63;1.50;;;16.00;99.90;;;;;;5071944;28;20094;-63
2022/07/07 03:49:37;;;;;;;8.35;1.30;;;16.10;99.90;;;;;;5071613;28;20068;-64
2022/07/07 03:52:03;;;;;;;8.63;1.38;;;16.00;99.90;;;;;;5071609;28;20045;-64
2022/07/07 03:54:29;;;;;;;7.43;1.42;;;16.00;99.90;;;;;;5071542;28;20037;-63
2022/07/07 03:56:54;;;;;;;4.85;1.25;;;15.90;99.90;;;;;;5071427;28;20125;-63
2022/07/07 03:59:20;;;;;;;11.55;1.52;;;15.90;99.90;;;;;;5071551;28;20443;-63
2022/07/07 04:01:46;;;;;;;5.75;1.55;;;16.00;99.90;;;;;;5075288;28;20048;-63
2022/07/07 04:04:15;;;;;;;6.70;1.30;;;16.00;99.90;;;;;;5074156;28;20040;-63
2022/07/07 04:06:42;;;;;;;13.70;2.05;;;16.00;99.90;;;;;;5075476;28;20032;-65
2022/07/07 04:09:07;;;;;;;9.57;1.23;;;15.80;99.90;;;;;;5075291;28;20037;-64
2022/07/07 04:11:33;;;;;;;10.23;1.83;;;16.00;99.90;;;;;;5075389;28;20397;-64
2022/07/07 04:13:59;;;;;;;9.27;2.00;;;15.80;99.90;;;;;;5075069;28;20044;-64
2022/07/07 04:16:25;;;;;;;4.93;1.23;;;15.80;99.90;;;;;;5075246;28;20040;-62
2022/07/07 04:18:50;;;;;;;13.57;2.42;;;15.80;99.90;;;;;;5075014;28;20036;-63
2022/07/07 04:21:16;;;;;;;6.88;1.60;;;16.00;99.90;;;;;;5074756;28;20059;-63
2022/07/07 04:23:42;;;;;;;9.05;1.45;;;15.80;99.90;;;;;;5073615;28;20391;-63
2022/07/07 04:26:08;;;;;;;8.18;1.98;;;15.80;99.90;;;;;;5073791;28;20045;-63
2022/07/07 04:28:33;;;;;;;10.38;1.60;;;15.80;99.90;;;;;;5074941;28;20043;-63
2022/07/07 04:30:59;;;;;;;10.48;1.73;;;15.70;99.90;;;;;;5075301;28;20041;-63
2022/07/07 04:33:24;;;;;;;12.00;2.55;;;15.80;99.90;;;;;;5074982;28;20048;-64
2022/07/07 04:35:50;;;;;;;13.57;2.42;;;15.70;99.90;;;;;;5074871;28;20040;-64
2022/07/07 04:38:16;;;;;;;9.43;2.30;;;15.70;99.90;;;;;;5074629;28;20080;-64
2022/07/07 04:40:41;;;;;;;10.45;2.03;;;15.60;99.90;;;;;;5074556;28;20474;-64
2022/07/07 04:43:07;;;;;;;7.82;1.60;;;15.60;99.90;;;;;;5074246;28;20040;-65
2022/07/07 04:45:34;;;;;;;10.25;1.70;;;15.70;99.90;;;;;;5074572;28;20037;-65
2022/07/07 04:47:59;;;;;;;4.68;1.13;;;15.60;99.90;;;;;;5073156;28;20044;-65
2022/07/07 04:50:25;;;;;;;6.50;1.80;;;15.80;99.90;;;;;;5073388;28;20053;-65
2022/07/07 04:52:52;;;;;;;9.68;1.50;;;15.80;99.90;;;;;;5073048;28;20044;-65
2022/07/07 04:55:18;;;;;;;13.48;1.70;;;15.70;99.90;;;;;;5074408;28;20048;-66
2022/07/07 04:57:44;;;;;;;8.25;1.48;;;15.80;99.90;;;;;;5074261;28;20040;-65
2022/07/07 05:00:11;;;;;;;9.70;1.38;;;15.90;99.90;;;;;;5074589;28;20044;-65
2022/07/07 05:02:36;;;;;;;7.30;1.73;;;15.70;99.90;;;;;;5074204;28;20079;-66
2022/07/07 05:05:02;;;;;;;9.05;1.83;;;15.90;99.90;;;;;;5074299;28;20068;-65
2022/07/07 05:07:28;;;;;;;10.73;1.67;;;15.80;99.90;;;;;;5074182;28;20040;-65
2022/07/07 05:09:54;;;;;;;5.45;1.42;;;15.80;99.90;;;;;;5074086;28;20036;-64
2022/07/07 05:12:19;;;;;;;5.15;1.10;;;15.70;99.90;;;;;;5073083;28;20074;-65
2022/07/07 05:14:45;;;;;;;9.95;1.70;;;15.80;99.90;;;;;;5074255;28;20049;-63
2022/07/07 05:17:10;;;;;;;9.70;1.60;;;15.70;99.90;;;;;;5074260;28;20044;-64
2022/07/07 05:19:36;;;;;;;11.20;2.13;;;15.60;99.90;;;;;;5074394;28;20036;-64
2022/07/07 05:22:02;;;;;;;11.32;2.25;;;15.60;99.90;;;;;;5073928;28;20048;-65
2022/07/07 05:24:27;;;;;;;10.82;1.77;;;15.50;99.90;;;;;;5074040;28;20097;-65
2022/07/07 05:26:53;;;;;;;9.02;1.70;;;15.70;99.90;;;;;;5073710;28;20403;-64
2022/07/07 05:29:19;;;;;;;18.30;2.38;;;15.60;99.90;;;;;;5074012;28;20041;-64
2022/07/07 05:31:44;;;;;;;9.80;1.95;;;15.60;99.90;;;;;;5073853;28;20496;-65
2022/07/07 05:34:10;;;;;;;15.27;2.25;;;15.70;99.90;;;;;;5072656;28;20039;-65
2022/07/07 05:36:36;;;;;;;16.58;2.08;;;15.60;99.90;;;;;;5073759;28;20043;-65
2022/07/07 05:39:02;;;;;;;17.08;2.53;;;15.60;99.90;;;;;;5073432;28;20057;-64
2022/07/07 05:41:27;;;;;;;7.80;2.13;;;15.60;99.90;;;;;;5073475;28;20049;-66
2022/07/07 05:43:53;;;;;;;12.93;2.10;;;15.70;99.90;;;;;;5073500;28;20056;-65
2022/07/07 05:46:19;;;;;;;14.77;3.13;;;15.60;99.90;;;;;;5073626;28;20138;-63
2022/07/07 05:48:44;;;;;;;12.15;2.42;;;15.60;99.90;;;;;;5073520;28;20041;-63
2022/07/07 05:51:10;;;;;;;9.05;1.73;;;15.80;99.90;;;;;;5073243;28;20111;-64
2022/07/07 05:53:36;;;;;;;11.68;2.75;;;15.90;99.90;;;;;;5073842;28;20048;-64
2022/07/07 05:56:02;;;;;;;7.65;2.10;;;15.80;99.90;;;;;;5073531;28;20653;-63
2022/07/07 05:58:28;;;;;;;11.93;1.95;;;15.80;99.90;;;;;;5073794;28;20052;-64
2022/07/07 06:00:54;;;;;;;12.90;2.38;;;15.80;99.90;;;;;;5073481;28;20041;-63
2022/07/07 06:03:20;;;;;;;11.68;2.60;;;15.90;99.90;;;;;;5073042;28;20460;-64
2022/07/07 06:05:45;;;;;;;11.10;2.15;;;15.90;99.90;;;;;;5071853;28;20039;-65
2022/07/07 06:08:11;;;;;;;7.07;2.03;;;15.90;99.90;;;;;;5073006;28;20037;-64
2022/07/07 06:10:37;;;;;;;9.45;1.55;;;15.80;99.90;;;;;;5072910;28;20036;-64
2022/07/07 06:13:03;;;;;;;7.25;1.50;;;15.90;99.90;;;;;;5072935;28;20033;-63
2022/07/07 06:15:33;;;;;;;9.48;2.20;;;16.10;99.90;;;;;;5073041;28;20084;-65
2022/07/07 06:18:05;;;;;;;10.30;2.05;;;16.10;99.90;;;;;;5071561;28;20036;-64
2022/07/07 06:20:31;;;;;;;9.48;1.65;;;16.40;99.90;;;;;;5072997;28;20032;-64
2022/07/07 06:22:57;;;;;;;6.90;2.00;;;16.70;99.90;;;;;;5072630;28;20063;-63
2022/07/07 06:25:23;;;;;;;6.75;1.70;;;17.00;99.90;;;;;;5072544;28;20037;-63
2022/07/07 06:27:49;;;;;;;4.45;1.10;;;17.00;99.90;;;;;;5071362;28;20040;-65
2022/07/07 06:30:15;;;;;;;8.48;1.58;;;17.00;99.90;;;;;;5072713;28;20095;-65
2022/07/07 06:32:41;;;;;;;9.98;1.60;;;17.10;99.90;;;;;;5072518;28;20518;-63
2022/07/07 06:35:07;;;;;;;12.23;1.70;;;16.90;99.90;;;;;;5072587;28;20397;-63
2022/07/07 06:37:33;;;;;;;6.13;1.80;;;16.80;99.90;;;;;;5072375;28;20503;-63
2022/07/07 06:39:59;;;;;;;7.43;1.40;;;16.70;99.90;;;;;;5072074;28;20053;-63
2022/07/07 06:42:25;;;;;;;7.45;1.02;;;16.50;99.90;;;;;;5072458;28;20048;-63
2022/07/07 06:44:50;;;;;;;10.40;1.40;;;16.70;99.90;;;;;;5072314;28;20403;-62
2022/07/07 06:47:16;;;;;;;7.72;0.85;;;16.80;99.90;;;;;;5071177;28;20064;-62
2022/07/07 06:49:41;;;;;;;6.25;1.20;;;16.90;99.90;;;;;;5072197;28;20115;-64
2022/07/07 06:52:08;;;;;;;4.43;0.90;;;16.80;99.90;;;;;;5072203;28;20047;-63
2022/07/07 06:54:34;;;;;;;6.90;1.20;;;16.70;99.90;;;;;;5072099;28;20036;-62
2022/07/07 06:57:00;;;;;;;4.88;0.75;;;16.40;99.90;;;;;;5071230;28;20502;-63
2022/07/07 06:59:25;;;;;;;4.43;0.85;;;16.50;99.90;;;;;;5071923;28;20115;-64
2022/07/07 07:01:51;;;;;;;4.68;0.80;;;16.40;99.90;;;;;;5072086;28;20039;-64
2022/07/07 07:04:16;;;;;;;8.80;1.20;;;16.50;99.90;;;;;;5072367;28;20441;-63
2022/07/07 07:06:43;;;;;;;3.88;0.70;;;16.80;99.90;;;;;;5070964;28;20127;-63
2022/07/07 07:09:09;;;;;;;4.50;1.10;;;16.90;99.90;;;;;;5070959;28;20406;-63
2022/07/07 07:11:36;;;;;;;6.22;1.98;;;17.00;99.90;;;;;;5071964;28;20100;-63
2022/07/07 07:14:02;;;;;;;2.95;1.08;;;16.90;99.90;;;;;;5072006;28;20037;-64
2022/07/07 07:16:28;;;;;;;5.05;1.13;;;16.90;99.90;;;;;;5071114;28;20036;-65
2022/07/07 07:18:55;;;;;;;7.75;0.90;;;17.00;99.90;;;;;;5070994;28;20041;-64
2022/07/07 07:21:20;;;;;;;4.72;0.60;;;17.20;99.90;;;;;;5071748;28;20081;-63
2022/07/07 07:23:46;;;;;;;5.25;1.08;;;17.30;99.90;;;;;;5071786;28;20049;-64
2022/07/07 07:26:12;;;;;;;3.53;0.77;;;17.70;99.90;;;;;;5070471;28;20037;-63
2022/07/07 07:28:38;;;;;;;3.45;1.20;;;17.90;99.90;;;;;;5071620;28;20036;-64
2022/07/07 07:31:04;;;;;;;5.07;1.05;;;18.10;99.90;;;;;;5071900;28;20041;-64
2022/07/07 07:33:30;;;;;;;2.50;0.68;;;18.10;99.90;;;;;;5071263;28;20395;-64
2022/07/07 07:35:57;;;;;;;5.28;0.95;;;18.30;99.90;;;;;;5071589;28;20040;-66
2022/07/07 07:38:22;;;;;;;5.85;0.80;;;18.40;99.90;;;;;;5071478;28;20053;-64
2022/07/07 07:40:48;;;;;;;5.22;1.08;;;18.40;99.90;;;;;;5070355;28;20059;-63
2022/07/07 07:43:14;;;;;;;6.05;0.90;;;18.20;99.90;;;;;;5070510;28;20113;-63
2022/07/07 07:45:39;;;;;;;6.20;1.92;;;17.90;99.90;;;;;;5071641;28;20037;-63
2022/07/07 07:48:05;;;;;;;3.80;0.75;;;17.70;99.90;;;;;;5053004;28;20048;-63
2022/07/07 07:50:32;;;;;;;4.45;0.75;;;17.60;99.90;;;;;;5071601;28;20498;-63
2022/07/07 07:52:58;;;;;;;4.35;1.00;;;17.40;99.90;;;;;;5071514;28;20048;-64
2022/07/07 07:55:24;;;;;;;4.45;1.08;;;17.40;99.90;;;;;;5071892;28;20069;-63
2022/07/07 07:57:51;;;;;;;7.18;0.77;;;17.40;99.90;;;;;;5071901;28;20045;-64
2022/07/07 08:00:20;;;;;;;3.88;0.88;;;17.40;99.90;;;;;;5071658;28;20562;-64
2022/07/07 08:02:47;;;;;;;7.80;1.35;;;17.60;99.90;;;;;;5071366;28;20072;-63
2022/07/07 08:05:14;;;;;;;7.97;1.00;;;17.70;99.90;;;;;;5071318;28;20442;-64
2022/07/07 08:07:41;;;;;;;6.07;1.65;;;17.60;99.90;;;;;;5071559;28;20037;-65
2022/07/07 08:10:08;;;;;;;7.50;1.80;;;17.60;99.90;;;;;;5071460;28;20443;-64
2022/07/07 08:12:34;;;;;;;5.57;1.30;;;17.80;99.90;;;;;;5071359;28;20375;-64
2022/07/07 08:15:00;;;;;;;6.22;1.88;;;18.20;99.90;;;;;;5071423;28;20049;-64
2022/07/07 08:17:26;;;;;;;4.57;1.48;;;18.20;99.90;;;;;;5071566;28;20449;-63
2022/07/07 08:19:52;;;;;;;2.47;0.68;;;17.90;99.90;;;;;;5071414;28;20406;-65
2022/07/07 08:22:18;;;;;;;6.50;1.70;;;18.10;99.90;;;;;;5071296;28;20036;-64
2022/07/07 08:24:43;;;;;;;8.38;1.35;;;17.70;99.90;;;;;;5071215;28;20040;-64
2022/07/07 08:27:09;;;;;;;12.43;1.50;;;17.70;99.90;;;;;;5069752;28;20036;-65
2022/07/07 08:29:38;;;;;;;8.82;1.58;;;17.80;99.90;;;;;;5069906;28;20044;-63
2022/07/07 08:32:08;;;;;;;5.53;1.30;;;18.00;99.90;;;;;;5071077;28;20037;-63
2022/07/07 08:34:34;;;;;;;8.60;2.10;;;18.10;99.90;;;;;;5071174;28;20466;-63
2022/07/07 08:37:00;;;;;;;10.10;1.73;;;18.00;99.90;;;;;;5071010;28;20471;-64
2022/07/07 08:39:26;;;;;;;9.98;2.28;;;17.90;99.90;;;;;;5071028;28;20055;-66
2022/07/07 08:41:51;;;;;;;7.28;1.70;;;18.10;99.90;;;;;;5071059;28;20556;-64
2022/07/07 08:44:18;;;;;;;14.68;2.95;;;17.90;99.90;;;;;;5071054;28;20115;-63
2022/07/07 08:46:44;;;;;;;9.13;1.92;;;18.00;99.90;;;;;;5072670;28;20041;-63
2022/07/07 08:49:10;;;;;;;8.30;1.58;;;18.00;99.90;;;;;;5074446;28;20044;-64
2022/07/07 08:51:43;;;;;;;8.38;1.80;;;17.90;99.90;;;;;;5074637;28;20474;-63
2022/07/07 08:54:13;;;;;;;6.75;2.03;;;17.70;99.90;;;;;;5074592;28;20037;-65
2022/07/07 08:56:40;;;;;;;7.90;2.35;;;17.70;99.90;;;;;;5074480;28;20154;-66
2022/07/07 08:59:07;;;;;;;8.13;1.83;;;17.70;99.90;;;;;;5074551;28;20497;-64
2022/07/07 09:01:35;;;;;;;7.90;1.85;;;17.90;99.90;;;;;;5074258;28;20040;-65
2022/07/07 09:04:02;;;;;;;5.70;1.90;;;17.90;99.90;;;;;;5072840;28;20040;-63
2022/07/07 09:06:28;;;;;;;9.52;2.50;;;17.70;99.90;;;;;;5074467;28;20042;-63
2022/07/07 09:08:55;;;;;;;4.97;1.48;;;17.60;99.90;;;;;;5074439;28;20162;-63
2022/07/07 09:11:26;;;;;;;3.42;1.10;;;17.80;99.90;;;;;;5074377;28;20360;-64
2022/07/07 09:13:56;;;;;;;3.83;1.55;;;18.00;99.90;;;;;;5073069;28;20080;-64
2022/07/07 09:16:23;;;;;;;3.60;1.30;;;18.40;99.90;;;;;;5074311;28;20040;-65
2022/07/07 09:18:49;;;;;;;6.95;1.20;;;18.80;99.90;;;;;;5073297;28;20037;-64
2022/07/07 09:21:27;;;;;;;4.57;1.25;;;19.00;99.90;;;;;;5073950;28;20040;-65
2022/07/07 09:23:54;;;;;;;4.45;1.05;;;19.00;99.90;;;;;;5073885;28;20072;-65
2022/07/07 09:26:40;;;;;;;7.97;1.77;;;18.90;99.90;;;;;;5073909;28;20114;-64
2022/07/07 09:29:08;;;;;;;6.60;1.35;;;18.90;99.90;;;;;;5073923;28;20115;-65
2022/07/07 09:31:55;;;;;;;6.88;1.25;;;19.10;99.90;;;;;;5074137;28;20370;-64
2022/07/07 09:34:26;;;;;;;10.82;1.92;;;18.90;99.90;;;;;;5074127;28;20044;-64
2022/07/07 09:39:55;;;;;;;11.73;1.60;;;18.50;99.90;;;;;;5073286;28;20110;-63
2022/07/07 09:42:30;;;;;;;6.32;1.48;;;18.40;99.90;;;;;;5073557;28;20413;-64
2022/07/07 09:45:02;;;;;;;6.50;2.17;;;18.50;99.90;;;;;;5073834;28;20473;-64
2022/07/07 09:47:29;;;;;;;12.38;1.65;;;18.50;99.90;;;;;;5073364;28;20475;-65
2022/07/07 09:50:02;;;;;;;7.45;1.30;;;18.40;99.90;;;;;;5073576;28;20044;-64
2022/07/07 09:52:29;;;;;;;2.58;0.73;;;18.10;99.90;;;;;;5073370;28;20037;-63
2022/07/07 09:54:56;;;;;;;3.92;0.63;;;18.00;99.90;;;;;;5073168;28;20565;-64
2022/07/07 09:57:22;;;;;;;11.13;0.95;;;18.00;99.90;;;;;;5072825;28;20044;-64
2022/07/07 09:59:47;;;;;;;6.10;0.85;;;18.00;99.90;;;;;;5073137;28;20213;-65
2022/07/07 10:02:24;;;;;;;4.68;0.90;;;18.10;99.90;;;;;;5073100;28;20035;-64
2022/07/07 10:04:52;;;;;;;5.93;1.95;;;18.60;99.90;;;;;;5073051;28;20037;-63
2022/07/07 10:07:23;;;;;;;5.85;1.35;;;18.50;99.90;;;;;;5073291;28;20032;-65
2022/07/07 10:09:55;;;;;;;5.50;1.10;;;18.30;99.90;;;;;;5073022;28;20048;-63
2022/07/07 10:12:26;;;;;;;6.25;0.90;;;18.40;99.90;;;;;;5072799;28;20040;-63
2022/07/07 10:15:00;;;;;;;4.50;1.10;;;18.50;99.90;;;;;;5071682;28;20044;-64
2022/07/07 10:17:30;;;;;;;9.00;1.83;;;18.90;99.90;;;;;;5073017;28;20034;-63
2022/07/07 10:19:56;;;;;;;7.30;1.15;;;18.80;99.90;;;;;;5073054;28;20048;-64
2022/07/07 10:22:27;;;;;;;11.40;1.95;;;18.50;99.90;;;;;;5073074;28;20494;-65
2022/07/07 10:24:54;;;;;;;6.78;1.55;;;18.10;99.90;;;;;;5072603;28;20047;-63
2022/07/07 10:27:22;;;;;;;9.38;1.77;;;18.10;99.90;;;;;;5072908;28;20037;-64
2022/07/07 10:29:50;;;;;;;11.70;1.88;;;18.10;99.90;;;;;;5071505;28;20083;-63
2022/07/07 10:32:27;;;;;;;9.15;1.95;;;18.10;99.90;;;;;;5072675;28;20043;-63
2022/07/07 10:34:56;;;;;;;11.85;2.20;;;18.10;99.90;;;;;;5072530;28;20159;-64
2022/07/07 10:37:23;;;;;;;;;;;17.90;99.90;;;;;;5072703;28;20040;-64
2022/07/07 10:39:50;;;;;;;8.07;1.88;;;17.80;99.90;;;;;;5072277;28;19925;-64
2022/07/07 10:42:16;;;;;;;15.10;2.30;;;17.90;99.90;;;;;;5070976;28;20410;-64
2022/07/07 10:44:42;;;;;;;12.43;2.30;;;17.80;99.90;;;;;;5072396;28;20042;-64
2022/07/07 10:47:11;;;;;;;20.23;3.00;;;17.70;99.90;;;;;;5072269;28;20037;-63
2022/07/07 10:49:43;;;;;;;13.80;3.15;;;17.70;99.90;;;;;;5072182;28;20036;-63
2022/07/07 10:52:14;;;;;;;13.90;2.65;;;17.70;99.90;;;;;;5072239;28;20475;-65
2022/07/07 10:54:48;;;;;;;12.40;2.58;;;17.90;99.90;;;;;;5072262;28;20086;-65
2022/07/07 10:57:18;;;;;;;15.23;3.28;;;18.00;99.90;;;;;;5072088;28;20044;-64
2022/07/07 11:00:03;;;;;;;13.98;2.22;;;18.10;99.90;;;;;;5072201;28;20107;-63
2022/07/07 11:02:41;;;;;;;13.85;2.78;;;18.10;99.90;;;;;;5071804;28;20479;-63
2022/07/07 11:05:10;;;;;;;19.55;3.30;;;18.30;99.90;;;;;;5072032;28;20513;-63
2022/07/07 11:07:36;;;;;;;15.57;2.90;;;18.00;99.90;;;;;;5071942;28;20047;-66
2022/07/07 11:10:06;;;;;;;14.43;2.50;;;18.00;99.90;;;;;;5071205;28;20035;-63
2022/07/07 11:12:40;;;;;;;20.70;3.45;;;17.70;99.90;;;;;;5071930;28;20076;-64
2022/07/07 11:15:14;;;;;;;14.30;2.95;;;17.60;99.90;;;;;;5071852;28;20036;-65
2022/07/07 11:17:47;;;;;;;15.80;2.55;;;17.60;99.90;;;;;;5072197;28;20083;-64
2022/07/07 11:20:17;;;;;;;14.50;2.50;;;17.60;99.90;;;;;;5071901;28;20075;-64
2022/07/07 11:22:44;;;;;;;15.95;2.75;;;17.70;99.90;;;;;;5071563;28;20502;-64
2022/07/07 11:25:11;;;;;;;15.07;2.20;;;17.80;99.90;;;;;;5071728;28;20044;-63
2022/07/07 11:27:37;;;;;;;12.43;2.22;;;17.80;99.90;;;;;;5071950;28;20379;-64
2022/07/07 11:30:04;;;;;;;9.15;2.08;;;17.80;99.90;;;;;;5071885;28;20032;-64
2022/07/07 11:32:36;;;;;;;12.65;2.35;;;17.90;99.90;;;;;;5071628;28;20090;-63
2022/07/07 11:35:10;;;;;;;7.63;1.88;;;17.90;99.90;;;;;;5071709;28;20047;-63
2022/07/07 11:37:39;;;;;;;11.77;2.08;;;18.10;99.90;;;;;;5070401;28;20053;-64
2022/07/07 11:40:25;;;;;;;16.73;2.75;;;18.10;99.90;;;;;;5071715;28;20582;-63
2022/07/07 11:42:51;;;;;;;13.15;2.67;;;18.30;99.90;;;;;;5071683;28;20041;-64
2022/07/07 11:45:25;;;;;;;6.10;1.77;;;18.30;99.90;;;;;;5070263;28;20037;-64
2022/07/07 11:47:52;;;;;;;9.25;2.10;;;18.30;99.90;;;;;;5071890;28;20127;-64
2022/07/07 11:50:18;;;;;;;11.88;2.35;;;18.40;99.90;;;;;;5071899;28;20036;-63
2022/07/07 11:52:48;;;;;;;5.75;1.38;;;18.50;99.90;;;;;;5071392;28;20465;-64
2022/07/07 11:55:17;;;;;;;11.38;2.63;;;18.70;99.90;;;;;;5071542;28;20130;-65
2022/07/07 11:57:47;;;;;;;9.15;1.83;;;18.80;99.90;;;;;;5070200;28;20561;-62
2022/07/07 12:00:19;;;;;;;9.35;1.88;;;18.90;99.90;;;;;;5071571;28;20037;-63
2022/07/07 12:02:47;;;;;;;12.25;2.95;;;18.90;99.90;;;;;;5071157;28;20509;-63
2022/07/07 12:05:16;;;;;;;12.00;1.92;;;19.10;99.90;;;;;;5071440;28;20387;-64
2022/07/07 12:07:44;;;;;;;13.60;2.72;;;19.20;99.90;;;;;;5071531;28;20111;-63
2022/07/07 12:10:40;;;;;;;12.05;2.50;;;19.40;99.90;;;;;;5071617;28;20036;-64
2022/07/07 12:13:08;;;;;;;16.05;3.22;;;19.40;99.90;;;;;;5049081;28;20049;-64
2022/07/07 12:15:36;;;;;;;14.30;2.50;;;19.30;99.90;;;;;;5049048;28;20515;-64
2022/07/07 12:18:03;;;;;;;20.77;3.08;;;19.20;99.90;;;;;;5049112;28;20053;-63
2022/07/07 12:20:29;;;;;;;13.77;2.28;;;18.90;99.90;;;;;;5050456;28;20076;-64
2022/07/07 12:22:58;;;;;;;10.98;3.05;;;18.90;99.90;;;;;;5052892;28;20056;-65
2022/07/07 12:25:25;;;;;;;15.82;3.03;;;19.00;99.90;;;;;;5052827;28;20123;-63
2022/07/07 12:28:01;;;;;;;12.48;2.53;;;18.70;99.90;;;;;;5052789;28;20041;-63
2022/07/07 12:30:28;;;;;;;13.00;3.10;;;18.90;99.90;;;;;;5035993;28;20088;-64
2022/07/07 12:32:55;;;;;;;12.35;3.08;;;19.00;99.90;;;;;;5052712;28;20076;-63
2022/07/07 12:35:27;;;;;;;10.05;2.03;;;19.40;99.90;;;;;;5052542;28;20076;-63
2022/07/07 12:37:53;;;;;;;6.97;2.25;;;19.50;99.90;;;;;;5052383;28;20053;-63
2022/07/07 12:40:19;;;;;;;9.52;2.72;;;19.40;99.90;;;;;;5052513;28;20049;-63
2022/07/07 12:42:45;;;;;;;13.23;2.10;;;19.30;99.90;;;;;;5052622;28;20415;-64
2022/07/07 12:45:17;;;;;;;9.82;2.25;;;19.20;99.90;;;;;;5052870;28;20714;-64
2022/07/07 12:47:53;;;;;;;13.13;1.95;;;19.00;99.90;;;;;;5052424;28;20052;-63